Time;durP1;ratioP1;P1;durP2;ratioP2;P2;SDS_P1;SDS_P2;PMS_P1;PMS_P2;Temp;Humidity;BMP_temperature;BMP_pressure;BME280_temperature;BME280_humidity;BME280_pressure;Samples;Min_cycle;Max_cycle;Signal;HPM_P1;HPM_P2
2023/04/12 00:02:05;;;;;;;4.13;1.73;;;;;;;-145.18;100.00;46695.56;6182201;23;20016;-75
2023/04/12 00:04:33;;;;;;;4.13;1.57;;;;;;;-145.18;100.00;46699.47;6182479;23;20088;-76
2023/04/12 00:06:59;;;;;;;4.40;1.60;;;;;;;-145.18;100.00;46685.78;6182250;23;20059;-75
2023/04/12 00:09:29;;;;;;;4.67;1.77;;;;;;;-145.18;100.00;46691.66;6182747;23;20798;-75
2023/04/12 00:11:56;;;;;;;6.43;1.10;;;;;;;-145.18;100.00;46685.78;6182177;23;20799;-75
2023/04/12 00:14:22;;;;;;;2.90;1.00;;;;;;;-145.18;100.00;46685.78;6182760;23;20681;-75
2023/04/12 00:16:48;;;;;;;8.03;1.33;;;;;;;-145.18;100.00;46687.75;6182266;23;20238;-75
2023/04/12 00:19:15;;;;;;;6.90;1.20;;;;;;;-145.18;100.00;46687.75;6182257;23;20404;-75
2023/04/12 00:21:41;;;;;;;4.57;1.07;;;;;;;-145.18;100.00;46689.69;6182532;23;20012;-75
2023/04/12 00:24:07;;;;;;;3.23;0.93;;;;;;;-145.18;100.00;46685.78;6182249;23;20239;-75
2023/04/12 00:26:32;;;;;;;4.50;1.00;;;;;;;-145.18;100.00;46693.59;6182331;23;20040;-75
2023/04/12 00:28:58;;;;;;;5.27;0.80;;;;;;;-145.18;100.00;46687.75;6182485;23;20435;-76
2023/04/12 00:31:23;;;;;;;5.80;1.27;;;;;;;-145.18;100.00;46687.75;6182166;23;20009;-76
2023/04/12 00:33:48;;;;;;;2.50;0.93;;;;;;;-145.18;100.00;46683.84;6182571;23;20092;-76
2023/04/12 00:36:14;;;;;;;3.70;0.83;;;;;;;-145.18;100.00;46683.84;6182018;23;20351;-76
2023/04/12 00:38:41;;;;;;;3.53;0.87;;;;;;;-145.18;100.00;46683.84;6182317;23;20013;-76
2023/04/12 00:41:06;;;;;;;2.33;0.87;;;;;;;-145.18;100.00;46677.97;6182006;23;20473;-75
2023/04/12 00:43:31;;;;;;;3.50;0.93;;;;;;;-145.18;100.00;46695.56;6182372;23;20235;-75
2023/04/12 00:45:57;;;;;;;4.07;1.03;;;;;;;-145.18;100.00;46681.88;6182442;23;20089;-75
2023/04/12 00:48:25;;;;;;;3.77;0.90;;;;;;;-145.18;100.00;46681.88;6181846;23;20017;-75
2023/04/12 00:50:54;;;;;;;4.10;1.03;;;;;;;-145.18;100.00;46677.97;6182500;23;20096;-74
2023/04/12 00:53:21;;;;;;;3.43;0.83;;;;;;;-145.18;100.00;46687.75;6181847;23;20317;-74
2023/04/12 00:55:48;;;;;;;1.93;0.87;;;;;;;-145.18;100.00;46681.88;6182462;23;20317;-75
2023/04/12 00:58:14;;;;;;;1.47;0.70;;;;;;;-145.18;100.00;46681.88;6181614;23;20651;-75
2023/04/12 01:00:40;;;;;;;4.27;0.97;;;;;;;-145.18;100.00;46687.75;6156010;23;20254;-74
2023/04/12 01:03:07;;;;;;;3.63;0.63;;;;;;;-145.18;100.00;46687.75;6181706;23;20261;-75
2023/04/12 01:05:49;;;;;;;3.03;0.80;;;;;;;-145.18;100.00;46683.84;6156130;23;20066;-76
2023/04/12 01:08:27;;;;;;;1.87;0.60;;;;;;;-145.18;100.00;46691.66;6181682;23;20227;-75
2023/04/12 01:11:00;;;;;;;2.77;0.90;;;;;;;-145.18;100.00;46687.75;6182318;23;20823;-75
2023/04/12 01:13:34;;;;;;;3.30;0.80;;;;;;;-145.18;100.00;46685.78;6155562;23;20250;-75
2023/04/12 01:16:09;;;;;;;4.43;1.00;;;;;;;-145.18;100.00;46679.94;6182231;23;20263;-74
2023/04/12 01:18:39;;;;;;;2.43;0.80;;;;;;;-145.18;100.00;46679.94;6181960;23;20250;-74
2023/04/12 01:21:09;;;;;;;4.60;1.00;;;;;;;-145.18;100.00;46685.78;6181766;23;20302;-74
2023/04/12 01:24:02;;;;;;;4.33;1.10;;;;;;;-145.18;100.00;46679.94;6181623;23;20723;-74
2023/04/12 01:26:59;;;;;;;3.50;0.97;;;;;;;-145.18;100.00;46679.94;6182175;23;20227;-74
2023/04/12 01:29:28;;;;;;;4.77;1.10;;;;;;;-145.18;100.00;46677.97;6177366;23;20588;-74
2023/04/12 01:31:58;;;;;;;2.53;1.00;;;;;;;-145.18;100.00;46681.88;6181740;23;20303;-74
2023/04/12 01:34:27;;;;;;;2.93;1.07;;;;;;;-145.18;100.00;46681.88;6182186;23;20227;-75
2023/04/12 01:36:54;;;;;;;5.10;1.47;;;;;;;-145.18;100.00;46676.03;6181806;23;20227;-75
2023/04/12 01:39:20;;;;;;;2.80;1.23;;;;;;;-145.18;100.00;46683.84;6183684;23;20308;-74
2023/04/12 01:41:47;;;;;;;4.83;1.53;;;;;;;-145.18;100.00;46677.97;6183581;23;20235;-74
2023/04/12 01:44:17;;;;;;;3.83;1.17;;;;;;;-145.18;100.00;46689.69;6183833;23;20263;-75
2023/04/12 01:46:46;;;;;;;3.23;1.10;;;;;;;-145.18;100.00;46683.84;6183801;23;20227;-75
2023/04/12 01:49:12;;;;;;;4.67;1.17;;;;;;;-145.18;100.00;46685.78;6183695;23;20751;-74
2023/04/12 01:51:44;;;;;;;5.47;0.97;;;;;;;-145.18;100.00;46693.59;6183882;23;20230;-74
2023/04/12 01:54:20;;;;;;;4.53;1.03;;;;;;;-145.18;100.00;46689.69;6183782;23;20239;-75
2023/04/12 01:56:53;;;;;;;3.00;0.73;;;;;;;-145.18;100.00;46693.59;6183829;23;20254;-74
2023/04/12 01:59:20;;;;;;;2.77;1.10;;;;;;;-145.18;100.00;46695.56;6183829;23;20251;-75
2023/04/12 02:04:18;;;;;;;2.67;0.87;;;;;;;-145.18;100.00;46687.75;6214029;23;20270;-75
2023/04/12 02:06:46;;;;;;;2.70;1.67;;;;;;;-145.18;100.00;46683.84;6213862;23;20226;-76
2023/04/12 02:09:11;;;;;;;4.70;0.80;;;;;;;-145.18;100.00;46683.84;6213897;23;20230;-74
2023/04/12 02:11:37;;;;;;;2.07;1.10;;;;;;;-145.18;100.00;46681.88;6212424;23;20237;-74
2023/04/12 02:14:02;;;;;;;3.40;0.87;;;;;;;-145.18;100.00;46681.88;6213391;23;20013;-74
2023/04/12 02:16:28;;;;;;;2.83;1.10;;;;;;;-145.18;100.00;46679.94;6213598;23;20196;-74
2023/04/12 02:18:56;;;;;;;2.03;0.97;;;;;;;-145.18;100.00;46685.78;6213485;23;20345;-74
2023/04/12 02:21:21;;;;;;;5.23;1.00;;;;;;;-145.18;100.00;46683.84;6187260;23;20425;-74
2023/04/12 02:23:47;;;;;;;7.27;1.17;;;;;;;-145.18;100.00;46676.03;6213469;23;20234;-74
2023/04/12 02:26:12;;;;;;;9.50;2.77;;;;;;;-145.18;100.00;46687.75;6213450;23;20009;-74
2023/04/12 02:28:38;;;;;;;6.50;1.13;;;;;;;-145.18;100.00;46683.84;6213671;23;20017;-73
2023/04/12 02:31:07;;;;;;;4.40;1.30;;;;;;;-145.18;100.00;46689.69;6213511;23;20011;-74
2023/04/12 02:33:33;;;;;;;2.30;1.00;;;;;;;-145.18;100.00;46681.88;6213164;23;20017;-73
2023/04/12 02:36:01;;;;;;;5.23;1.20;;;;;;;-145.18;100.00;46681.88;6213506;23;20230;-73
2023/04/12 02:38:27;;;;;;;6.10;1.67;;;;;;;-145.18;100.00;46687.75;6213139;23;20304;-73
2023/04/12 02:40:53;;;;;;;4.57;1.47;;;;;;;-145.18;100.00;46683.84;6213594;23;20242;-73
2023/04/12 02:43:18;;;;;;;4.47;1.17;;;;;;;-145.18;100.00;46677.97;6213309;23;20226;-73
2023/04/12 02:45:43;;;;;;;8.60;1.30;;;;;;;-145.18;100.00;46672.13;6213629;23;20009;-73
2023/04/12 02:48:09;;;;;;;2.73;1.30;;;;;;;-145.18;100.00;46670.16;6212977;23;20017;-73
2023/04/12 02:50:35;;;;;;;4.23;1.73;;;;;;;-145.18;100.00;46677.97;6213590;23;20013;-73
2023/04/12 02:53:00;;;;;;;4.07;1.40;;;;;;;-145.18;100.00;46679.94;6213111;23;20020;-73
2023/04/12 02:55:26;;;;;;;3.57;1.50;;;;;;;-145.18;100.00;46668.22;6213410;23;20234;-73
2023/04/12 02:57:52;;;;;;;6.23;1.60;;;;;;;-145.18;100.00;46668.22;6212701;23;20047;-73
2023/04/12 03:00:18;;;;;;;3.67;1.20;;;;;;;-145.18;100.00;46676.03;6213820;23;20008;-73
2023/04/12 03:02:44;;;;;;;3.20;1.37;;;;;;;-145.18;100.00;46672.13;6213006;23;20260;-73
2023/04/12 03:05:11;;;;;;;2.47;1.23;;;;;;;-145.18;100.00;46677.97;6212800;23;20270;-73
2023/04/12 03:07:36;;;;;;;7.37;1.80;;;;;;;-145.18;100.00;46670.16;6213218;23;20009;-73
2023/04/12 03:10:05;;;;;;;4.60;1.40;;;;;;;-145.18;100.00;46668.22;6213103;23;20288;-74
2023/04/12 03:12:30;;;;;;;2.53;1.43;;;;;;;-145.18;100.00;46670.16;6213162;23;20012;-74
2023/04/12 03:14:55;;;;;;;4.23;1.67;;;;;;;-145.18;100.00;46668.22;6212865;23;20262;-74
2023/04/12 03:17:21;;;;;;;5.70;1.30;;;;;;;-145.18;100.00;46668.22;6212997;23;20005;-74
2023/04/12 03:19:48;;;;;;;6.27;1.60;;;;;;;-145.18;100.00;46666.25;6213022;23;20092;-75
2023/04/12 03:22:13;;;;;;;5.90;1.80;;;;;;;-145.18;100.00;46668.22;6212827;23;20004;-74
2023/04/12 03:24:41;;;;;;;4.80;1.43;;;;;;;-145.18;100.00;46668.22;6213214;23;20774;-74
2023/04/12 03:27:07;;;;;;;4.47;1.03;;;;;;;-145.18;100.00;46666.25;6212525;23;20756;-74
2023/04/12 03:29:32;;;;;;;6.20;1.60;;;;;;;-145.18;100.00;46668.22;6213388;23;20234;-74
2023/04/12 03:31:58;;;;;;;5.10;1.60;;;;;;;-145.18;100.00;46660.41;6212659;23;20062;-74
2023/04/12 03:34:26;;;;;;;2.97;1.90;;;;;;;-145.18;100.00;46670.16;6213210;23;20008;-74
2023/04/12 03:36:53;;;;;;;3.87;1.47;;;;;;;-145.18;100.00;46666.25;6212761;23;20476;-74
2023/04/12 03:39:19;;;;;;;3.43;1.30;;;;;;;-145.18;100.00;46664.31;6212704;23;20279;-73
2023/04/12 03:41:45;;;;;;;4.23;1.47;;;;;;;-145.18;100.00;46660.41;6212992;23;20269;-74
2023/04/12 03:44:10;;;;;;;8.37;1.60;;;;;;;-145.18;100.00;46664.31;6212528;23;20430;-73
2023/04/12 03:46:35;;;;;;;2.20;1.40;;;;;;;-145.18;100.00;46668.22;6213087;23;20005;-73
2023/04/12 03:49:01;;;;;;;5.80;1.40;;;;;;;-145.18;100.00;46660.41;6186013;23;20007;-74
2023/04/12 03:51:29;;;;;;;2.53;1.27;;;;;;;-145.18;100.00;46666.25;6213106;23;20009;-74
2023/04/12 03:53:55;;;;;;;4.67;1.40;;;;;;;-145.18;100.00;46664.31;6212342;23;20389;-73
2023/04/12 03:56:20;;;;;;;4.57;1.57;;;;;;;-145.18;100.00;46666.25;6212979;23;20713;-73
2023/04/12 03:58:46;;;;;;;2.43;1.30;;;;;;;-145.18;100.00;46658.44;6212271;23;20262;-73
2023/04/12 04:01:12;;;;;;;3.53;1.67;;;;;;;-145.18;100.00;46660.41;6212478;23;20016;-73
2023/04/12 04:03:39;;;;;;;2.70;1.07;;;;;;;-145.18;100.00;46660.41;6211415;23;20021;-73
2023/04/12 04:06:06;;;;;;;6.60;1.80;;;;;;;-145.18;100.00;46660.41;6211408;23;20226;-73
2023/04/12 04:08:31;;;;;;;6.47;1.20;;;;;;;-145.18;100.00;46660.41;6184347;23;20238;-73
2023/04/12 04:10:57;;;;;;;3.30;1.30;;;;;;;-145.18;100.00;46658.44;6211163;23;20679;-72
2023/04/12 04:13:23;;;;;;;2.03;0.93;;;;;;;-145.18;100.00;46656.50;6210941;23;20013;-73
2023/04/12 04:15:57;;;;;;;2.03;1.00;;;;;;;-145.18;100.00;46656.50;6211001;23;20020;-73
2023/04/12 04:18:23;;;;;;;2.27;1.23;;;;;;;-145.18;100.00;46658.44;6186069;23;20790;-72
2023/04/12 04:20:48;;;;;;;3.07;1.10;;;;;;;-145.18;100.00;46660.41;6211134;23;20261;-72
2023/04/12 04:23:14;;;;;;;3.47;1.10;;;;;;;-145.18;100.00;46662.34;6154939;23;20000;-72
2023/04/12 04:25:40;;;;;;;4.67;1.20;;;;;;;-145.18;100.00;46652.59;6210488;23;20016;-72
2023/04/12 04:28:06;;;;;;;1.93;1.00;;;;;;;-145.18;100.00;46662.34;6210875;23;20059;-73
2023/04/12 04:30:37;;;;;;;4.03;1.73;;;;;;;-145.18;100.00;46660.41;6211359;23;20265;-73
2023/04/12 04:33:04;;;;;;;3.63;1.07;;;;;;;-145.18;100.00;46658.44;6211105;23;20261;-73
2023/04/12 04:35:30;;;;;;;4.23;1.00;;;;;;;-145.18;100.00;46654.53;6211272;23;20234;-73
2023/04/12 04:37:56;;;;;;;1.90;1.10;;;;;;;-145.18;100.00;46660.41;6210750;23;20317;-74
2023/04/12 04:40:23;;;;;;;3.93;1.20;;;;;;;-145.18;100.00;46658.44;6211000;23;20273;-73
2023/04/12 04:42:54;;;;;;;2.27;1.13;;;;;;;-145.18;100.00;46660.41;6210565;23;20302;-74
2023/04/12 04:45:25;;;;;;;2.80;1.40;;;;;;;-145.18;100.00;46652.59;6210114;23;20234;-74
2023/04/12 04:47:52;;;;;;;2.93;1.23;;;;;;;-145.18;100.00;46662.34;6210386;23;20698;-73
2023/04/12 04:50:17;;;;;;;3.93;1.33;;;;;;;-145.18;100.00;46654.53;6210945;23;20231;-73
2023/04/12 04:52:43;;;;;;;4.80;1.37;;;;;;;-145.18;100.00;46660.41;6184074;23;20321;-73
2023/04/12 04:55:09;;;;;;;5.87;1.40;;;;;;;-145.18;100.00;46656.50;6210624;23;20036;-73
2023/04/12 04:57:35;;;;;;;2.73;1.83;;;;;;;-145.18;100.00;46660.41;6210715;23;20004;-73
2023/04/12 05:00:01;;;;;;;2.33;1.23;;;;;;;-145.18;100.00;46658.44;6210578;23;20275;-73
2023/04/12 05:02:26;;;;;;;4.07;1.30;;;;;;;-145.18;100.00;46654.53;6164145;23;1090985;-73
2023/04/12 05:04:55;;;;;;;2.13;1.10;;;;;;;-145.18;100.00;46660.41;6185793;23;20020;-74
2023/04/12 05:07:21;;;;;;;3.33;1.50;;;;;;;-145.18;100.00;46652.59;6212098;23;20013;-73
2023/04/12 05:09:46;;;;;;;2.57;1.90;;;;;;;-145.18;100.00;46658.44;6185814;23;20233;-73
2023/04/12 05:12:11;;;;;;;4.47;1.57;;;;;;;-145.18;100.00;46658.44;6211256;23;20012;-73
2023/04/12 05:14:38;;;;;;;5.33;1.50;;;;;;;-145.18;100.00;46658.44;6212127;23;20004;-72
2023/04/12 05:17:04;;;;;;;4.73;2.00;;;;;;;-145.18;100.00;46652.59;6211934;23;20012;-73
2023/04/12 05:19:30;;;;;;;4.90;1.73;;;;;;;-145.18;100.00;46656.50;6211923;23;20325;-73
2023/04/12 05:21:56;;;;;;;4.20;1.43;;;;;;;-145.18;100.00;46654.53;6185237;23;20477;-73
2023/04/12 05:24:22;;;;;;;5.50;1.77;;;;;;;-145.18;100.00;46658.44;6212168;23;20488;-73
2023/04/12 05:26:47;;;;;;;3.63;1.60;;;;;;;-145.18;100.00;46656.50;6212128;23;20226;-74
2023/04/12 05:29:12;;;;;;;3.97;1.80;;;;;;;-145.18;100.00;46650.63;6211451;23;20489;-73
2023/04/12 05:31:38;;;;;;;6.27;2.17;;;;;;;-145.18;100.00;46658.44;6212187;23;20303;-73
2023/04/12 05:34:03;;;;;;;4.80;2.13;;;;;;;-145.18;100.00;46654.53;6211763;23;20015;-74
2023/04/12 05:36:28;;;;;;;4.93;2.23;;;;;;;-145.18;100.00;46656.50;6185900;23;20004;-73
2023/04/12 05:38:54;;;;;;;4.70;2.70;;;;;;;-145.18;100.00;46654.53;6211320;23;20094;-74
2023/04/12 05:41:19;;;;;;;4.27;2.50;;;;;;;-145.18;100.00;46654.53;6212248;23;20402;-73
2023/04/12 05:43:45;;;;;;;5.30;2.40;;;;;;;-145.18;100.00;46656.50;6211955;23;20096;-73
2023/04/12 05:46:11;;;;;;;3.67;2.43;;;;;;;-145.18;100.00;46662.34;6212022;23;20013;-73
2023/04/12 05:48:37;;;;;;;3.63;3.00;;;;;;;-145.18;100.00;46654.53;6212021;23;20226;-73
2023/04/12 05:51:04;;;;;;;6.50;3.00;;;;;;;-145.18;100.00;46660.41;6185445;23;20017;-73
2023/04/12 05:53:31;;;;;;;4.70;2.77;;;;;;;-145.18;100.00;46658.44;6211735;23;20016;-73
2023/04/12 05:55:57;;;;;;;4.93;3.20;;;;;;;-145.18;100.00;46658.44;6210975;23;20230;-73
2023/04/12 05:58:22;;;;;;;7.97;3.67;;;;;;;-145.18;100.00;46660.41;6211812;23;20250;-73
2023/04/12 06:00:48;;;;;;;4.03;3.00;;;;;;;-145.18;100.00;46656.50;6211641;23;20392;-73
2023/04/12 06:03:14;;;;;;;5.37;3.60;;;;;;;-145.18;100.00;46654.53;6210615;23;20108;-73
2023/04/12 06:05:39;;;;;;;6.60;3.23;;;;;;;-145.18;100.00;46656.50;6211961;23;20012;-73
2023/04/12 06:08:05;;;;;;;5.87;3.57;;;;;;;-145.18;100.00;46662.34;6211082;23;20016;-73
2023/04/12 06:10:31;;;;;;;4.00;3.17;;;;;;;-145.18;100.00;46660.41;6211926;23;20019;-73
2023/04/12 06:12:56;;;;;;;6.40;3.37;;;;;;;-145.18;100.00;46664.31;6211246;23;20012;-73
2023/04/12 06:15:21;;;;;;;9.40;3.73;;;;;;;-145.18;100.00;46662.34;6210805;23;20008;-73
2023/04/12 06:17:47;;;;;;;6.67;3.73;;;;;;;-145.18;100.00;46656.50;6210849;23;20335;-73
2023/04/12 06:20:13;;;;;;;7.87;3.87;;;;;;;-145.18;100.00;46662.34;6208660;23;20055;-73
2023/04/12 06:22:38;;;;;;;8.53;3.80;;;;;;;-145.18;100.00;46660.41;6184045;23;20001;-73
2023/04/12 06:25:04;;;;;;;8.33;3.37;;;;;;;-145.18;100.00;46660.41;6212543;23;20008;-73
2023/04/12 06:27:30;;;;;;;6.17;3.80;;;;;;;-145.18;100.00;46664.31;6212429;23;20095;-73
2023/04/12 06:29:56;;;;;;;7.13;3.83;;;;;;;-145.18;100.00;46664.31;6213184;23;20694;-73
2023/04/12 06:32:21;;;;;;;8.90;3.37;;;;;;;-145.18;100.00;46658.44;6213767;23;20231;-73
2023/04/12 06:34:47;;;;;;;7.90;3.70;;;;;;;-145.18;100.00;46664.31;6213503;23;20446;-73
2023/04/12 06:37:12;;;;;;;9.20;3.47;;;;;;;-145.18;100.00;46656.50;6213312;23;20012;-73
2023/04/12 06:39:37;;;;;;;8.73;3.80;;;;;;;-145.18;100.00;46664.31;6213257;23;20044;-73
2023/04/12 06:42:03;;;;;;;8.00;3.43;;;;;;;-145.18;100.00;46666.25;6213486;23;20008;-72
2023/04/12 06:44:28;;;;;;;7.30;3.20;;;;;;;-145.18;100.00;46668.22;6213518;23;20067;-72
2023/04/12 06:46:53;;;;;;;9.20;3.07;;;;;;;-145.18;100.00;46664.31;6186672;23;20005;-72
2023/04/12 06:49:19;;;;;;;5.23;3.13;;;;;;;-145.18;100.00;46658.44;6212896;23;20442;-73
2023/04/12 06:51:44;;;;;;;9.83;3.80;;;;;;;-145.18;100.00;46664.31;6213480;23;20013;-72
2023/04/12 06:54:11;;;;;;;9.07;3.30;;;;;;;-145.18;100.00;46662.34;6212610;23;20039;-73
2023/04/12 06:56:37;;;;;;;9.67;3.30;;;;;;;-145.18;100.00;46664.31;6213175;23;20008;-73
2023/04/12 06:59:02;;;;;;;12.27;3.33;;;;;;;-145.18;100.00;46660.41;6210958;23;20264;-72
2023/04/12 07:01:27;;;;;;;10.97;2.97;;;;;;;-145.18;100.00;46662.34;6210851;23;20313;-72
2023/04/12 07:03:53;;;;;;;8.60;4.13;;;;;;;-145.18;100.00;46664.31;6212151;23;20047;-72
2023/04/12 07:06:18;;;;;;;8.47;3.67;;;;;;;-145.18;100.00;46666.25;6213186;23;20016;-72
2023/04/12 07:08:44;;;;;;;14.03;3.67;;;;;;;-145.18;100.00;46668.22;6186201;23;20016;-73
2023/04/12 07:11:09;;;;;;;7.90;3.30;;;;;;;-145.18;100.00;46662.34;6212949;23;20434;-72
2023/04/12 07:13:35;;;;;;;7.37;2.83;;;;;;;-145.18;100.00;46662.34;6213047;23;20016;-73
2023/04/12 07:16:00;;;;;;;10.27;2.90;;;;;;;-145.18;100.00;46668.22;6212981;23;20016;-72
2023/04/12 07:18:26;;;;;;;14.40;2.50;;;;;;;-145.18;100.00;46672.13;6213131;23;20438;-72
2023/04/12 07:20:54;;;;;;;9.40;3.30;;;;;;;-145.18;100.00;46670.16;6185869;23;20461;-72
2023/04/12 07:23:22;;;;;;;5.90;2.40;;;;;;;-145.18;100.00;46664.31;6212784;23;20234;-72
2023/04/12 07:25:47;;;;;;;21.47;2.60;;;;;;;-145.18;100.00;46670.16;6213374;23;20222;-72
2023/04/12 07:28:13;;;;;;;12.47;2.10;;;;;;;-145.18;100.00;46670.16;6212670;23;20618;-72
2023/04/12 07:30:39;;;;;;;14.97;2.40;;;;;;;-145.18;100.00;46676.03;6212525;23;20008;-73
2023/04/12 07:33:05;;;;;;;10.87;2.27;;;;;;;-145.18;100.00;46676.03;6212186;23;20088;-72
2023/04/12 07:35:31;;;;;;;12.90;1.67;;;;;;;-145.18;100.00;46677.97;6212634;23;20289;-72
2023/04/12 07:37:57;;;;;;;13.53;1.73;;;;;;;-145.18;100.00;46674.06;6212478;23;20082;-73
2023/04/12 07:40:23;;;;;;;11.37;1.70;;;;;;;-145.18;100.00;46676.03;6212952;23;20227;-73
2023/04/12 07:42:48;;;;;;;15.70;2.13;;;;;;;-145.18;100.00;46676.03;6212844;23;20012;-72
2023/04/12 07:45:13;;;;;;;19.17;2.90;;;;;;;-145.18;100.00;46677.97;6212593;23;20222;-72
2023/04/12 07:47:39;;;;;;;20.63;2.57;;;;;;;-145.18;100.00;46676.03;6213146;23;20017;-72
2023/04/12 07:50:05;;;;;;;15.73;2.33;;;;;;;-145.18;100.00;46679.94;6212245;23;20012;-72
2023/04/12 07:52:31;;;;;;;16.90;2.17;;;;;;;-145.18;100.00;46677.97;6212904;23;20008;-72
2023/04/12 07:54:57;;;;;;;13.27;2.47;;;;;;;-145.18;100.00;46670.16;6184258;23;20239;-72
2023/04/12 07:57:23;;;;;;;16.47;2.07;;;;;;;-145.18;100.00;46658.44;6212802;23;20005;-72
2023/04/12 07:59:48;;;;;;;17.70;1.93;;;;;;;-145.18;100.00;46617.41;6212498;23;20322;-72
2023/04/12 08:02:14;;;;;;;19.03;2.43;;;;;;;-145.18;100.00;46572.50;6212107;23;20377;-72
2023/04/12 08:04:43;;;;;;;15.47;2.60;;;;;;;-145.18;100.00;46556.88;6212660;23;20091;-72
2023/04/12 08:07:08;;;;;;;17.17;2.20;;;;;;;-145.18;100.00;46552.97;6212232;23;20091;-73
2023/04/12 08:09:33;;;;;;;25.20;2.00;;;;;;;-145.18;100.00;46554.91;6212346;23;20313;-72
2023/04/12 08:11:59;;;;;;;16.10;2.50;;;;;;;-145.18;100.00;46558.81;6212599;23;20016;-72
2023/04/12 08:14:25;;;;;;;16.17;2.10;;;;;;;-145.18;100.00;46558.81;6185940;23;20438;-72
2023/04/12 08:16:50;;;;;;;17.80;2.80;;;;;;;-145.18;100.00;46570.53;6212447;23;20008;-72
2023/04/12 08:19:17;;;;;;;11.47;2.03;;;;;;;-145.18;100.00;46570.53;6211960;23;20256;-72
2023/04/12 08:21:42;;;;;;;16.57;2.53;;;;;;;-145.18;100.00;46568.59;6212607;23;20027;-72
2023/04/12 08:24:08;;;;;;;21.33;2.33;;;;;;;-145.18;100.00;46578.34;6212430;23;20671;-72
2023/04/12 08:26:33;;;;;;;13.53;1.57;;;;;;;-145.18;100.00;46584.22;6212525;23;20036;-73
2023/04/12 08:28:59;;;;;;;18.57;2.10;;;;;;;-145.18;100.00;46584.22;6211944;23;20008;-72
2023/04/12 08:31:24;;;;;;;17.17;2.57;;;;;;;-145.18;100.00;46582.25;6212424;23;20079;-72
2023/04/12 08:33:50;;;;;;;12.87;2.10;;;;;;;-145.18;100.00;46578.34;6212325;23;20094;-73
2023/04/12 08:36:15;;;;;;;18.37;3.10;;;;;;;-145.18;100.00;46578.34;6212335;23;20000;-72
2023/04/12 08:38:40;;;;;;;21.00;1.90;;;;;;;-145.18;100.00;46582.25;6211970;23;20009;-72
2023/04/12 08:41:06;;;;;;;20.50;2.13;;;;;;;-145.18;100.00;46592.03;6211426;23;20201;-72
2023/04/12 08:43:33;;;;;;;20.17;2.37;;;;;;;-145.18;100.00;46601.78;6211851;23;20055;-72
2023/04/12 08:45:59;;;;;;;12.27;1.90;;;;;;;-145.18;100.00;46625.22;6185701;23;20008;-72
2023/04/12 08:48:27;;;;;;;19.13;2.10;;;;;;;-145.18;100.00;46633.06;6212099;23;20245;-72
2023/04/12 08:50:55;;;;;;;20.40;2.33;;;;;;;-145.18;100.00;46666.25;6212197;23;20226;-73
2023/04/12 08:53:21;;;;;;;18.37;2.10;;;;;;;-145.18;100.00;46713.13;6212248;23;20321;-72
2023/04/12 08:55:46;;;;;;;18.73;2.60;;;;;;;-145.18;100.00;46742.44;6212304;23;20080;-72
2023/04/12 08:58:15;;;;;;;21.90;2.73;;;;;;;-145.18;100.00;46697.50;6211085;23;20710;-72
2023/04/12 09:00:41;;;;;;;17.33;2.33;;;;;;;-145.18;100.00;46703.38;6212187;23;20012;-72
2023/04/12 09:03:09;;;;;;;20.90;2.70;;;;;;;-145.18;100.00;46695.56;6211480;23;20442;-72
2023/04/12 09:05:34;;;;;;;18.20;2.60;;;;;;;-145.18;100.00;46711.19;6212101;23;20634;-72
2023/04/12 09:08:01;;;;;;;9.70;1.67;;;;;;;-145.18;100.00;46752.19;6211942;23;20036;-72
2023/04/12 09:10:35;;;;;;;8.77;2.20;;;;;;;-145.18;100.00;46717.03;6210819;23;20330;-72
2023/04/12 09:13:00;;;;;;;10.97;2.20;;;;;;;-145.18;100.00;46679.94;6211835;23;20388;-72
2023/04/12 09:15:26;;;;;;;16.83;2.83;;;;;;;-145.18;100.00;46683.84;6212103;23;20084;-72
2023/04/12 09:18:08;;;;;;;13.20;2.13;;;;;;;-145.18;100.00;46720.94;6212060;23;20013;-72
2023/04/12 09:20:35;;;;;;;7.77;2.20;;;;;;;-145.18;100.00;46740.47;6212407;23;20067;-72
2023/04/12 09:23:01;;;;;;;11.90;2.63;;;;;;;-145.18;100.00;46760.00;6211909;23;20009;-72
2023/04/12 09:25:46;;;;;;;13.33;2.27;;;;;;;-145.18;100.00;46785.41;6212247;23;20230;-72
2023/04/12 09:28:18;;;;;;;13.03;2.47;;;;;;;-145.18;100.00;46791.28;6211837;23;20028;-72
2023/04/12 09:30:44;;;;;;;16.23;2.57;;;;;;;-145.18;100.00;46867.44;6211995;23;20253;-72
2023/04/12 09:33:11;;;;;;;10.97;2.40;;;;;;;-145.18;100.00;46840.09;6211557;23;20009;-71
2023/04/12 09:35:37;;;;;;;13.43;2.67;;;;;;;-145.18;100.00;46922.16;6212228;23;20013;-71
2023/04/12 09:38:09;;;;;;;15.00;2.67;;;;;;;-145.18;100.00;46926.06;6211854;23;20320;-72
2023/04/12 09:40:36;;;;;;;12.27;2.23;;;;;;;-145.18;100.00;47314.81;6211974;23;20007;-71
2023/04/12 09:43:02;;;;;;;12.13;1.90;;;;;;;-145.18;100.00;47310.91;6211633;23;20005;-71
2023/04/12 09:45:30;;;;;;;6.60;1.87;;;;;;;-145.18;100.00;47449.63;6185199;23;20013;-71
2023/04/12 09:47:56;;;;;;;20.83;2.93;;;;;;;-145.18;100.00;47443.75;6211932;23;20004;-71
2023/04/12 09:50:27;;;;;;;15.20;2.17;;;;;;;-145.18;100.00;47379.28;6211894;23;20456;-72
2023/04/12 09:52:54;;;;;;;15.70;2.33;;;;;;;-145.18;100.00;47389.06;6211630;23;20004;-71
2023/04/12 09:55:25;;;;;;;8.07;1.60;;;;;;;-145.18;100.00;47359.75;6211603;23;20008;-71
2023/04/12 09:57:52;;;;;;;8.63;1.60;;;;;;;-145.18;100.00;47330.44;6211564;23;20028;-71
2023/04/12 10:00:21;;;;;;;11.73;2.63;;;;;;;-145.18;100.00;47310.91;6213029;23;20493;-72
2023/04/12 10:02:49;;;;;;;11.50;2.03;;;;;;;-145.18;100.00;47348.03;6186596;23;20339;-72
2023/04/12 10:05:17;;;;;;;9.70;2.57;;;;;;;-145.18;100.00;47363.66;6213327;23;20019;-71
2023/04/12 10:07:44;;;;;;;12.80;2.60;;;;;;;-145.18;100.00;47385.16;6214124;23;20371;-71
2023/04/12 10:10:14;;;;;;;11.37;2.67;;;;;;;-145.18;100.00;47400.78;6213063;23;20231;-71
2023/04/12 10:12:41;;;;;;;9.57;2.17;;;;;;;-145.18;100.00;47414.47;6213791;23;20502;-72
2023/04/12 10:15:12;;;;;;;15.97;1.77;;;;;;;-145.18;100.00;47426.19;6212769;23;20012;-72
2023/04/12 10:18:05;;;;;;;10.30;2.37;;;;;;;-145.18;100.00;47422.28;6213458;23;20005;-71
2023/04/12 10:20:31;;;;;;;9.03;1.67;;;;;;;-145.18;100.00;47418.38;6208919;23;20004;-71
2023/04/12 10:22:58;;;;;;;11.07;2.00;;;;;;;-145.18;100.00;47424.22;6213124;23;20001;-71
2023/04/12 10:25:25;;;;;;;17.97;1.90;;;;;;;-145.18;100.00;47410.56;6213552;23;20462;-71
2023/04/12 10:27:51;;;;;;;6.97;1.40;;;;;;;-145.18;100.00;47385.16;6213322;23;20008;-71
2023/04/12 10:30:26;;;;;;;11.67;1.93;;;;;;;-145.18;100.00;47383.19;6213016;23;20426;-71
2023/04/12 10:33:03;;;;;;;7.38;1.25;;;;;;;-145.18;100.00;47391.00;6213745;23;20099;-71
2023/04/12 10:35:30;;;;;;;9.23;1.73;;;;;;;-145.18;100.00;47363.66;6213400;23;20039;-71
2023/04/12 10:38:00;;;;;;;8.43;1.57;;;;;;;-145.18;100.00;47361.72;6213545;23;20001;-71
2023/04/12 10:40:27;;;;;;;10.90;1.50;;;;;;;-145.18;100.00;47359.75;6213479;23;20058;-71
2023/04/12 10:43:17;;;;;;;8.30;1.23;;;;;;;-145.18;100.00;47375.38;6213158;23;19997;-71
2023/04/12 10:45:43;;;;;;;11.27;1.60;;;;;;;-145.18;100.00;47375.38;6213338;23;20076;-71
2023/04/12 10:48:28;;;;;;;8.10;1.60;;;;;;;-145.18;100.00;47336.31;6213013;23;20024;-71
2023/04/12 10:51:24;;;;;;;10.67;1.27;;;;;;;-145.18;100.00;47359.75;6213285;23;20007;-71
2023/04/12 10:53:53;;;;;;;6.75;0.95;;;;;;;-145.18;100.00;47367.56;6213358;23;20008;-71
2023/04/12 10:56:30;;;;;;;6.97;1.80;;;;;;;-145.18;100.00;47316.78;6213170;23;20084;-71
2023/04/12 10:59:06;;;;;;;6.93;0.87;;;;;;;-145.18;100.00;47365.63;6212979;23;20370;-71
2023/04/12 11:01:32;;;;;;;6.32;1.17;;;;;;;-145.18;100.00;47355.84;6213516;23;20078;-71
2023/04/12 11:04:20;;;;;;;5.13;1.10;;;;;;;-145.18;100.00;47355.84;6212743;23;20016;-71
2023/04/12 11:06:51;;;;;;;14.67;1.63;;;;;;;-145.18;100.00;47355.84;6213062;23;20005;-71
2023/04/12 11:09:33;;;;;;;6.13;1.00;;;;;;;-145.18;100.00;47336.31;6212675;23;20015;-71
2023/04/12 11:12:04;;;;;;;5.50;1.20;;;;;;;-145.18;100.00;47342.16;6213030;23;20001;-71